sensor_id;sensor_type;location;lat;lon;timestamp;pressure;altitude;pressure_sealevel;temperature;humidity
5877;BME280;2964;42.144;24.730;2023-01-15T00:01:24;143251.13;;;6.63;100.00
5877;BME280;2964;42.144;24.730;2023-01-15T00:03:53;143261.13;;;6.67;100.00
5877;BME280;2964;42.144;24.730;2023-01-15T00:06:21;143289.97;;;6.79;100.00
5877;BME280;2964;42.144;24.730;2023-01-15T00:08:49;143267.44;;;6.70;100.00
5877;BME280;2964;42.144;24.730;2023-01-15T00:11:16;143228.59;;;6.54;100.00
5877;BME280;2964;42.144;24.730;2023-01-15T00:13:43;143277.44;;;6.74;100.00
5877;BME280;2964;42.144;24.730;2023-01-15T00:16:12;143253.66;;;6.64;100.00
5877;BME280;2964;42.144;24.730;2023-01-15T00:18:39;143283.69;;;6.76;100.00
5877;BME280;2964;42.144;24.730;2023-01-15T00:21:10;143281.19;;;6.75;100.00
5877;BME280;2964;42.144;24.730;2023-01-15T00:23:37;143278.69;;;6.74;100.00
5877;BME280;2964;42.144;24.730;2023-01-15T00:26:31;143266.13;;;6.69;100.00
5877;BME280;2964;42.144;24.730;2023-01-15T00:29:16;143218.59;;;6.50;100.00
5877;BME280;2964;42.144;24.730;2023-01-15T00:31:52;143268.66;;;6.70;100.00
5877;BME280;2964;42.144;24.730;2023-01-15T00:34:19;143261.13;;;6.67;100.00
5877;BME280;2964;42.144;24.730;2023-01-15T00:36:47;143303.72;;;6.85;100.00
5877;BME280;2964;42.144;24.730;2023-01-15T00:39:14;143242.38;;;6.60;100.00
5877;BME280;2964;42.144;24.730;2023-01-15T00:41:41;143254.91;;;6.65;100.00
5877;BME280;2964;42.144;24.730;2023-01-15T00:44:07;143237.38;;;6.57;100.00
5877;BME280;2964;42.144;24.730;2023-01-15T00:46:34;143281.19;;;6.75;100.00
5877;BME280;2964;42.144;24.730;2023-01-15T00:49:02;143302.50;;;6.84;100.00
5877;BME280;2964;42.144;24.730;2023-01-15T00:51:28;143308.75;;;6.87;100.00
5877;BME280;2964;42.144;24.730;2023-01-15T00:53:56;143279.91;;;6.75;100.00
5877;BME280;2964;42.144;24.730;2023-01-15T00:56:23;143236.13;;;6.57;100.00
5877;BME280;2964;42.144;24.730;2023-01-15T00:58:50;143223.59;;;6.52;100.00
5877;BME280;2964;42.144;24.730;2023-01-15T01:01:17;143231.13;;;6.55;100.00
5877;BME280;2964;42.144;24.730;2023-01-15T01:03:43;143267.44;;;6.70;100.00
5877;BME280;2964;42.144;24.730;2023-01-15T01:06:13;143288.69;;;6.79;100.00
5877;BME280;2964;42.144;24.730;2023-01-15T01:08:40;143234.84;;;6.56;100.00
5877;BME280;2964;42.144;24.730;2023-01-15T01:11:10;143279.91;;;6.75;100.00
5877;BME280;2964;42.144;24.730;2023-01-15T01:13:38;143252.38;;;6.64;100.00
5877;BME280;2964;42.144;24.730;2023-01-15T01:16:20;143268.66;;;6.70;100.00
5877;BME280;2964;42.144;24.730;2023-01-15T01:18:47;143239.88;;;6.59;100.00
5877;BME280;2964;42.144;24.730;2023-01-15T01:21:14;143281.19;;;6.75;100.00
5877;BME280;2964;42.144;24.730;2023-01-15T01:23:40;143257.38;;;6.66;100.00
5877;BME280;2964;42.144;24.730;2023-01-15T01:26:08;143288.69;;;6.79;100.00
5877;BME280;2964;42.144;24.730;2023-01-15T01:28:35;143249.91;;;6.63;100.00
5877;BME280;2964;42.144;24.730;2023-01-15T01:31:03;143138.47;;;6.17;100.00
5877;BME280;2964;42.144;24.730;2023-01-15T01:33:30;143276.19;;;6.73;100.00
5877;BME280;2964;42.144;24.730;2023-01-15T01:35:57;143277.44;;;6.74;100.00
5877;BME280;2964;42.144;24.730;2023-01-15T01:38:23;143268.66;;;6.70;100.00
5877;BME280;2964;42.144;24.730;2023-01-15T01:40:50;143263.66;;;6.68;100.00
5877;BME280;2964;42.144;24.730;2023-01-15T01:43:20;143248.66;;;6.62;100.00
5877;BME280;2964;42.144;24.730;2023-01-15T01:45:47;143231.13;;;6.55;100.00
5877;BME280;2964;42.144;24.730;2023-01-15T01:48:15;143253.66;;;6.64;100.00
5877;BME280;2964;42.144;24.730;2023-01-15T01:50:44;143232.38;;;6.55;100.00
5877;BME280;2964;42.144;24.730;2023-01-15T01:53:13;143208.59;;;6.46;100.00
5877;BME280;2964;42.144;24.730;2023-01-15T01:55:43;143267.44;;;6.70;100.00
5877;BME280;2964;42.144;24.730;2023-01-15T01:58:11;143274.91;;;6.73;100.00
5877;BME280;2964;42.144;24.730;2023-01-15T02:00:45;143228.59;;;6.54;100.00
5877;BME280;2964;42.144;24.730;2023-01-15T02:03:13;143292.44;;;6.80;100.00
5877;BME280;2964;42.144;24.730;2023-01-15T02:05:45;143274.91;;;6.73;100.00
5877;BME280;2964;42.144;24.730;2023-01-15T02:08:12;143227.34;;;6.53;100.00
5877;BME280;2964;42.144;24.730;2023-01-15T02:10:39;143248.66;;;6.62;100.00
5877;BME280;2964;42.144;24.730;2023-01-15T02:13:10;143209.81;;;6.46;100.00
5877;BME280;2964;42.144;24.730;2023-01-15T02:15:42;143236.13;;;6.57;100.00
5877;BME280;2964;42.144;24.730;2023-01-15T02:18:16;143196.06;;;6.41;100.00
5877;BME280;2964;42.144;24.730;2023-01-15T02:20:47;143158.47;;;6.25;100.00
5877;BME280;2964;42.144;24.730;2023-01-15T02:23:36;143176.00;;;6.32;100.00
5877;BME280;2964;42.144;24.730;2023-01-15T02:29:18;143188.53;;;6.37;100.00
5877;BME280;2964;42.144;24.730;2023-01-15T02:31:50;143161.00;;;6.26;100.00
5877;BME280;2964;42.144;24.730;2023-01-15T02:34:23;143141.00;;;6.18;100.00
5877;BME280;2964;42.144;24.730;2023-01-15T02:36:55;143168.53;;;6.29;100.00
5877;BME280;2964;42.144;24.730;2023-01-15T02:39:25;143157.25;;;6.25;100.00
5877;BME280;2964;42.144;24.730;2023-01-15T02:41:56;143169.75;;;6.30;100.00
5877;BME280;2964;42.144;24.730;2023-01-15T02:44:26;143158.47;;;6.25;100.00
5877;BME280;2964;42.144;24.730;2023-01-15T02:46:56;143174.78;;;6.32;100.00
5877;BME280;2964;42.144;24.730;2023-01-15T02:49:24;143162.25;;;6.27;100.00
5877;BME280;2964;42.144;24.730;2023-01-15T02:51:56;143188.53;;;6.37;100.00
5877;BME280;2964;42.144;24.730;2023-01-15T02:54:27;143156.00;;;6.24;100.00
5877;BME280;2964;42.144;24.730;2023-01-15T02:56:56;143193.53;;;6.40;100.00
5877;BME280;2964;42.144;24.730;2023-01-15T02:59:29;143179.78;;;6.34;100.00
5877;BME280;2964;42.144;24.730;2023-01-15T03:02:00;143141.00;;;6.18;100.00
5877;BME280;2964;42.144;24.730;2023-01-15T03:04:31;143197.31;;;6.41;100.00
5877;BME280;2964;42.144;24.730;2023-01-15T03:07:06;143168.53;;;6.29;100.00
5877;BME280;2964;42.144;24.730;2023-01-15T03:09:35;143139.72;;;6.17;100.00
5877;BME280;2964;42.144;24.730;2023-01-15T03:12:05;143163.53;;;6.27;100.00
5877;BME280;2964;42.144;24.730;2023-01-15T03:14:41;143196.06;;;6.41;100.00
5877;BME280;2964;42.144;24.730;2023-01-15T03:17:15;143181.06;;;6.34;100.00
5877;BME280;2964;42.144;24.730;2023-01-15T03:19:45;143213.59;;;6.48;100.00
5877;BME280;2964;42.144;24.730;2023-01-15T03:22:18;143168.53;;;6.29;100.00
5877;BME280;2964;42.144;24.730;2023-01-15T03:24:48;143168.53;;;6.29;100.00
5877;BME280;2964;42.144;24.730;2023-01-15T03:27:17;143193.53;;;6.40;100.00
5877;BME280;2964;42.144;24.730;2023-01-15T03:29:47;143246.13;;;6.61;100.00
5877;BME280;2964;42.144;24.730;2023-01-15T03:32:16;143196.06;;;6.41;100.00
5877;BME280;2964;42.144;24.730;2023-01-15T03:34:46;143227.34;;;6.53;100.00
5877;BME280;2964;42.144;24.730;2023-01-15T03:37:13;143221.06;;;6.51;100.00
5877;BME280;2964;42.144;24.730;2023-01-15T03:39:41;143212.31;;;6.47;100.00
5877;BME280;2964;42.144;24.730;2023-01-15T03:42:16;143166.00;;;6.28;100.00
5877;BME280;2964;42.144;24.730;2023-01-15T03:44:51;143193.53;;;6.40;100.00
5877;BME280;2964;42.144;24.730;2023-01-15T03:47:30;143138.47;;;6.17;100.00
5877;BME280;2964;42.144;24.730;2023-01-15T03:50:03;143152.25;;;6.23;100.00
5877;BME280;2964;42.144;24.730;2023-01-15T03:52:36;143141.00;;;6.18;100.00
5877;BME280;2964;42.144;24.730;2023-01-15T03:55:12;143171.00;;;6.30;100.00
5877;BME280;2964;42.144;24.730;2023-01-15T03:57:42;143187.28;;;6.37;100.00
5877;BME280;2964;42.144;24.730;2023-01-15T04:00:18;143169.75;;;6.30;100.00
5877;BME280;2964;42.144;24.730;2023-01-15T04:02:47;143174.78;;;6.32;100.00
5877;BME280;2964;42.144;24.730;2023-01-15T04:05:15;143208.59;;;6.46;100.00
5877;BME280;2964;42.144;24.730;2023-01-15T04:07:43;143202.31;;;6.43;100.00
5877;BME280;2964;42.144;24.730;2023-01-15T04:10:12;143183.53;;;6.35;100.00
5877;BME280;2964;42.144;24.730;2023-01-15T04:12:38;143176.00;;;6.32;100.00
5877;BME280;2964;42.144;24.730;2023-01-15T04:15:06;143179.78;;;6.34;100.00
5877;BME280;2964;42.144;24.730;2023-01-15T04:17:34;143209.81;;;6.46;100.00
5877;BME280;2964;42.144;24.730;2023-01-15T04:20:01;143209.81;;;6.46;100.00
5877;BME280;2964;42.144;24.730;2023-01-15T04:22:28;143196.06;;;6.41;100.00
5877;BME280;2964;42.144;24.730;2023-01-15T04:24:55;143147.25;;;6.21;100.00
5877;BME280;2964;42.144;24.730;2023-01-15T04:27:22;143154.75;;;6.24;100.00
5877;BME280;2964;42.144;24.730;2023-01-15T04:29:48;143156.00;;;6.24;100.00
5877;BME280;2964;42.144;24.730;2023-01-15T04:32:15;143186.06;;;6.36;100.00
5877;BME280;2964;42.144;24.730;2023-01-15T04:34:43;143164.75;;;6.28;100.00
5877;BME280;2964;42.144;24.730;2023-01-15T04:37:10;143167.25;;;6.29;100.00
5877;BME280;2964;42.144;24.730;2023-01-15T04:39:36;143173.53;;;6.31;100.00
5877;BME280;2964;42.144;24.730;2023-01-15T04:42:03;143196.06;;;6.41;100.00
5877;BME280;2964;42.144;24.730;2023-01-15T04:44:47;143222.34;;;6.51;100.00
5877;BME280;2964;42.144;24.730;2023-01-15T04:47:14;143177.28;;;6.33;100.00
5877;BME280;2964;42.144;24.730;2023-01-15T04:49:42;143196.06;;;6.41;100.00
5877;BME280;2964;42.144;24.730;2023-01-15T04:52:09;143197.31;;;6.41;100.00
5877;BME280;2964;42.144;24.730;2023-01-15T04:54:35;143134.72;;;6.15;100.00
5877;BME280;2964;42.144;24.730;2023-01-15T04:57:03;143194.81;;;6.40;100.00
5877;BME280;2964;42.144;24.730;2023-01-15T04:59:30;143231.13;;;6.55;100.00
5877;BME280;2964;42.144;24.730;2023-01-15T05:01:57;143243.59;;;6.60;100.00
5877;BME280;2964;42.144;24.730;2023-01-15T05:04:23;143211.06;;;6.47;100.00
5877;BME280;2964;42.144;24.730;2023-01-15T05:06:51;143211.06;;;6.47;100.00
5877;BME280;2964;42.144;24.730;2023-01-15T05:09:18;143202.31;;;6.43;100.00
5877;BME280;2964;42.144;24.730;2023-01-15T05:11:45;143193.53;;;6.40;100.00
5877;BME280;2964;42.144;24.730;2023-01-15T05:14:12;143181.06;;;6.34;100.00
5877;BME280;2964;42.144;24.730;2023-01-15T05:16:38;143149.75;;;6.22;100.00
5877;BME280;2964;42.144;24.730;2023-01-15T05:19:05;143159.75;;;6.26;100.00
5877;BME280;2964;42.144;24.730;2023-01-15T05:21:34;143181.06;;;6.34;100.00
5877;BME280;2964;42.144;24.730;2023-01-15T05:24:04;143188.53;;;6.37;100.00
5877;BME280;2964;42.144;24.730;2023-01-15T05:26:34;143216.06;;;6.49;100.00
5877;BME280;2964;42.144;24.730;2023-01-15T05:29:01;143198.53;;;6.42;100.00
5877;BME280;2964;42.144;24.730;2023-01-15T05:31:29;143176.00;;;6.32;100.00
5877;BME280;2964;42.144;24.730;2023-01-15T05:33:56;143171.00;;;6.30;100.00
5877;BME280;2964;42.144;24.730;2023-01-15T05:36:26;143198.53;;;6.42;100.00
5877;BME280;2964;42.144;24.730;2023-01-15T05:38:53;143216.06;;;6.49;100.00
5877;BME280;2964;42.144;24.730;2023-01-15T05:41:23;143202.31;;;6.43;100.00
5877;BME280;2964;42.144;24.730;2023-01-15T05:44:09;143207.31;;;6.45;100.00
5877;BME280;2964;42.144;24.730;2023-01-15T05:46:38;143211.06;;;6.47;100.00
5877;BME280;2964;42.144;24.730;2023-01-15T05:49:07;143206.06;;;6.45;100.00
5877;BME280;2964;42.144;24.730;2023-01-15T05:51:35;143184.78;;;6.36;100.00
5877;BME280;2964;42.144;24.730;2023-01-15T05:54:02;143197.31;;;6.41;100.00
5877;BME280;2964;42.144;24.730;2023-01-15T05:56:30;143178.53;;;6.33;100.00
5877;BME280;2964;42.144;24.730;2023-01-15T05:58:57;143159.75;;;6.26;100.00
5877;BME280;2964;42.144;24.730;2023-01-15T06:01:24;143166.00;;;6.28;100.00
5877;BME280;2964;42.144;24.730;2023-01-15T06:03:50;143148.47;;;6.21;100.00
5877;BME280;2964;42.144;24.730;2023-01-15T06:06:17;143141.00;;;6.18;100.00
5877;BME280;2964;42.144;24.730;2023-01-15T06:08:44;143146.00;;;6.20;100.00
5877;BME280;2964;42.144;24.730;2023-01-15T06:11:11;143159.75;;;6.26;100.00
5877;BME280;2964;42.144;24.730;2023-01-15T06:13:40;143159.75;;;6.26;100.00
5877;BME280;2964;42.144;24.730;2023-01-15T06:16:07;143129.72;;;6.13;100.00
5877;BME280;2964;42.144;24.730;2023-01-15T06:18:35;143146.00;;;6.20;100.00
5877;BME280;2964;42.144;24.730;2023-01-15T06:21:02;143161.00;;;6.26;100.00
5877;BME280;2964;42.144;24.730;2023-01-15T06:23:29;143077.09;;;5.92;100.00
5877;BME280;2964;42.144;24.730;2023-01-15T06:25:59;143163.53;;;6.27;100.00
5877;BME280;2964;42.144;24.730;2023-01-15T06:28:25;143156.00;;;6.24;100.00
5877;BME280;2964;42.144;24.730;2023-01-15T06:30:54;143161.00;;;6.26;100.00
5877;BME280;2964;42.144;24.730;2023-01-15T06:33:21;143093.44;;;5.98;100.00
5877;BME280;2964;42.144;24.730;2023-01-15T06:35:47;143114.72;;;6.07;100.00
5877;BME280;2964;42.144;24.730;2023-01-15T06:38:14;143133.47;;;6.15;100.00
5877;BME280;2964;42.144;24.730;2023-01-15T06:40:41;143073.38;;;5.90;100.00
5877;BME280;2964;42.144;24.730;2023-01-15T06:43:08;143094.66;;;5.99;100.00
5877;BME280;2964;42.144;24.730;2023-01-15T06:45:55;143143.47;;;6.19;100.00
5877;BME280;2964;42.144;24.730;2023-01-15T06:48:44;143127.22;;;6.12;100.00
5877;BME280;2964;42.144;24.730;2023-01-15T06:51:11;143174.78;;;6.32;100.00
5877;BME280;2964;42.144;24.730;2023-01-15T06:53:40;143143.47;;;6.19;100.00
5877;BME280;2964;42.144;24.730;2023-01-15T06:56:07;143147.25;;;6.21;100.00
5877;BME280;2964;42.144;24.730;2023-01-15T06:58:34;143142.25;;;6.18;100.00
5877;BME280;2964;42.144;24.730;2023-01-15T07:01:08;143128.47;;;6.13;100.00
5877;BME280;2964;42.144;24.730;2023-01-15T07:03:34;143124.72;;;6.11;100.00
5877;BME280;2964;42.144;24.730;2023-01-15T07:06:05;143156.00;;;6.24;100.00
5877;BME280;2964;42.144;24.730;2023-01-15T07:08:32;143152.25;;;6.23;100.00
5877;BME280;2964;42.144;24.730;2023-01-15T07:11:01;143075.84;;;5.91;100.00
5877;BME280;2964;42.144;24.730;2023-01-15T07:13:28;142998.31;;;5.59;100.00
5877;BME280;2964;42.144;24.730;2023-01-15T07:15:57;143123.47;;;6.11;100.00
5877;BME280;2964;42.144;24.730;2023-01-15T07:18:26;143028.34;;;5.72;100.00
5877;BME280;2964;42.144;24.730;2023-01-15T07:20:54;143048.34;;;5.80;100.00
5877;BME280;2964;42.144;24.730;2023-01-15T07:23:21;143075.84;;;5.91;100.00
5877;BME280;2964;42.144;24.730;2023-01-15T07:25:48;143115.94;;;6.08;100.00
5877;BME280;2964;42.144;24.730;2023-01-15T07:28:14;143053.34;;;5.82;100.00
5877;BME280;2964;42.144;24.730;2023-01-15T07:30:41;143055.84;;;5.83;100.00
5877;BME280;2964;42.144;24.730;2023-01-15T07:33:08;143107.19;;;6.04;100.00
5877;BME280;2964;42.144;24.730;2023-01-15T07:35:36;143058.34;;;5.84;100.00
5877;BME280;2964;42.144;24.730;2023-01-15T07:38:03;143077.09;;;5.92;100.00
5877;BME280;2964;42.144;24.730;2023-01-15T07:40:29;143146.00;;;6.20;100.00
5877;BME280;2964;42.144;24.730;2023-01-15T07:42:57;143226.13;;;6.53;100.00
5877;BME280;2964;42.144;24.730;2023-01-15T07:45:41;143214.81;;;6.48;100.00
5877;BME280;2964;42.144;24.730;2023-01-15T07:48:26;143226.13;;;6.53;100.00
5877;BME280;2964;42.144;24.730;2023-01-15T07:51:12;143157.25;;;6.25;100.00
5877;BME280;2964;42.144;24.730;2023-01-15T07:53:38;143251.13;;;6.63;100.00
5877;BME280;2964;42.144;24.730;2023-01-15T07:56:05;143242.38;;;6.60;100.00
5877;BME280;2964;42.144;24.730;2023-01-15T07:58:32;143256.13;;;6.65;100.00
5877;BME280;2964;42.144;24.730;2023-01-15T08:00:59;143243.59;;;6.60;100.00
5877;BME280;2964;42.144;24.730;2023-01-15T08:03:26;143283.69;;;6.76;100.00
5877;BME280;2964;42.144;24.730;2023-01-15T08:05:52;143239.88;;;6.59;100.00
5877;BME280;2964;42.144;24.730;2023-01-15T08:08:20;143326.28;;;6.94;100.00
5877;BME280;2964;42.144;24.730;2023-01-15T08:10:47;143321.28;;;6.92;100.00
5877;BME280;2964;42.144;24.730;2023-01-15T08:13:31;143353.81;;;7.05;100.00
5877;BME280;2964;42.144;24.730;2023-01-15T08:16:15;143338.81;;;6.99;100.00
5877;BME280;2964;42.144;24.730;2023-01-15T08:18:42;143363.84;;;7.09;100.00
5877;BME280;2964;42.144;24.730;2023-01-15T08:21:12;143330.03;;;6.95;100.00
5877;BME280;2964;42.144;24.730;2023-01-15T08:23:41;143293.72;;;6.81;100.00
5877;BME280;2964;42.144;24.730;2023-01-15T08:26:13;143303.72;;;6.85;100.00
5877;BME280;2964;42.144;24.730;2023-01-15T08:28:41;143368.84;;;7.11;100.00
5877;BME280;2964;42.144;24.730;2023-01-15T08:31:07;143363.84;;;7.09;100.00
5877;BME280;2964;42.144;24.730;2023-01-15T08:33:34;143406.44;;;7.27;100.00
5877;BME280;2964;42.144;24.730;2023-01-15T08:36:01;143350.06;;;7.04;100.00
5877;BME280;2964;42.144;24.730;2023-01-15T08:38:28;143415.22;;;7.30;100.00
5877;BME280;2964;42.144;24.730;2023-01-15T08:40:56;143406.44;;;7.27;100.00
5877;BME280;2964;42.144;24.730;2023-01-15T08:43:28;143398.91;;;7.24;100.00
5877;BME280;2964;42.144;24.730;2023-01-15T08:45:56;143361.34;;;7.08;100.00
5877;BME280;2964;42.144;24.730;2023-01-15T08:48:23;143365.06;;;7.10;100.00
5877;BME280;2964;42.144;24.730;2023-01-15T08:50:50;143378.84;;;7.15;100.00
5877;BME280;2964;42.144;24.730;2023-01-15T08:53:17;143434.00;;;7.38;100.00
5877;BME280;2964;42.144;24.730;2023-01-15T08:55:44;143431.47;;;7.37;100.00
5877;BME280;2964;42.144;24.730;2023-01-15T08:58:12;143477.81;;;7.56;100.00
5877;BME280;2964;42.144;24.730;2023-01-15T09:00:40;143366.34;;;7.10;100.00
5877;BME280;2964;42.144;24.730;2023-01-15T09:03:06;143422.69;;;7.33;100.00
5877;BME280;2964;42.144;24.730;2023-01-15T09:05:33;143408.94;;;7.28;100.00
5877;BME280;2964;42.144;24.730;2023-01-15T09:08:01;143429.00;;;7.36;100.00
5877;BME280;2964;42.144;24.730;2023-01-15T09:10:28;143465.31;;;7.51;100.00
5877;BME280;2964;42.144;24.730;2023-01-15T09:12:57;143431.47;;;7.37;100.00
5877;BME280;2964;42.144;24.730;2023-01-15T09:15:26;143480.34;;;7.57;100.00
5877;BME280;2964;42.144;24.730;2023-01-15T09:17:52;143469.09;;;7.52;100.00
5877;BME280;2964;42.144;24.730;2023-01-15T09:20:20;143416.47;;;7.31;100.00
5877;BME280;2964;42.144;24.730;2023-01-15T09:22:47;143429.00;;;7.36;100.00
5877;BME280;2964;42.144;24.730;2023-01-15T09:25:14;143461.56;;;7.49;100.00
5877;BME280;2964;42.144;24.730;2023-01-15T09:27:43;143436.47;;;7.39;100.00
5877;BME280;2964;42.144;24.730;2023-01-15T09:30:15;143387.63;;;7.19;100.00
5877;BME280;2964;42.144;24.730;2023-01-15T09:32:44;143436.47;;;7.39;100.00
5877;BME280;2964;42.144;24.730;2023-01-15T09:35:10;143431.47;;;7.37;100.00
5877;BME280;2964;42.144;24.730;2023-01-15T09:37:37;143427.72;;;7.35;100.00
5877;BME280;2964;42.144;24.730;2023-01-15T09:40:05;143429.00;;;7.36;100.00
5877;BME280;2964;42.144;24.730;2023-01-15T09:42:41;143479.09;;;7.57;100.00
5877;BME280;2964;42.144;24.730;2023-01-15T09:45:20;143411.44;;;7.29;100.00
5877;BME280;2964;42.144;24.730;2023-01-15T09:48:04;143466.56;;;7.51;100.00
5877;BME280;2964;42.144;24.730;2023-01-15T09:50:44;143497.88;;;7.64;100.00
5877;BME280;2964;42.144;24.730;2023-01-15T09:53:27;143352.59;;;7.05;100.00
5877;BME280;2964;42.144;24.730;2023-01-15T09:55:59;143421.47;;;7.33;100.00
5877;BME280;2964;42.144;24.730;2023-01-15T09:58:32;143470.34;;;7.53;100.00
5877;BME280;2964;42.144;24.730;2023-01-15T10:00:59;143514.19;;;7.71;100.00
5877;BME280;2964;42.144;24.730;2023-01-15T10:03:31;143461.56;;;7.49;100.00
5877;BME280;2964;42.144;24.730;2023-01-15T10:06:09;143423.94;;;7.34;100.00
5877;BME280;2964;42.144;24.730;2023-01-15T10:08:41;143441.47;;;7.41;100.00
5877;BME280;2964;42.144;24.730;2023-01-15T10:11:22;143432.72;;;7.38;100.00
5877;BME280;2964;42.144;24.730;2023-01-15T10:14:22;143461.56;;;7.49;100.00
5877;BME280;2964;42.144;24.730;2023-01-15T10:16:51;143464.03;;;7.50;100.00
5877;BME280;2964;42.144;24.730;2023-01-15T10:19:19;143474.09;;;7.54;100.00
5877;BME280;2964;42.144;24.730;2023-01-15T10:21:50;143481.59;;;7.58;100.00
5877;BME280;2964;42.144;24.730;2023-01-15T10:24:23;143491.66;;;7.62;100.00
5877;BME280;2964;42.144;24.730;2023-01-15T10:26:54;143546.78;;;7.84;100.00
5877;BME280;2964;42.144;24.730;2023-01-15T10:29:27;143484.13;;;7.59;100.00
5877;BME280;2964;42.144;24.730;2023-01-15T10:32:01;143525.47;;;7.76;100.00
5877;BME280;2964;42.144;24.730;2023-01-15T10:37:36;143534.22;;;7.79;100.00
5877;BME280;2964;42.144;24.730;2023-01-15T10:40:17;143481.59;;;7.58;100.00
5877;BME280;2964;42.144;24.730;2023-01-15T10:42:53;143544.25;;;7.83;100.00
5877;BME280;2964;42.144;24.730;2023-01-15T10:45:25;143551.78;;;7.86;100.00
5877;BME280;2964;42.144;24.730;2023-01-15T10:47:54;143509.16;;;7.69;100.00
5877;BME280;2964;42.144;24.730;2023-01-15T10:50:25;143464.03;;;7.50;100.00
5877;BME280;2964;42.144;24.730;2023-01-15T10:53:01;143538.00;;;7.81;100.00
5877;BME280;2964;42.144;24.730;2023-01-15T10:55:34;143578.09;;;7.97;100.00
5877;BME280;2964;42.144;24.730;2023-01-15T10:58:10;143566.81;;;7.92;100.00
5877;BME280;2964;42.144;24.730;2023-01-15T11:00:39;143570.56;;;7.94;100.00
5877;BME280;2964;42.144;24.730;2023-01-15T11:03:11;143558.03;;;7.89;100.00
5877;BME280;2964;42.144;24.730;2023-01-15T11:05:42;143608.16;;;8.09;100.00
5877;BME280;2964;42.144;24.730;2023-01-15T11:08:15;143570.56;;;7.94;100.00
5877;BME280;2964;42.144;24.730;2023-01-15T11:10:46;143586.88;;;8.01;100.00
5877;BME280;2964;42.144;24.730;2023-01-15T11:13:19;143613.22;;;8.11;100.00
5877;BME280;2964;42.144;24.730;2023-01-15T11:16:04;143516.69;;;7.72;100.00
5877;BME280;2964;42.144;24.730;2023-01-15T11:18:49;143581.88;;;7.99;100.00
5877;BME280;2964;42.144;24.730;2023-01-15T11:21:39;143543.00;;;7.83;100.00
5877;BME280;2964;42.144;24.730;2023-01-15T11:24:14;143533.00;;;7.79;100.00
5877;BME280;2964;42.144;24.730;2023-01-15T11:26:46;143491.66;;;7.62;100.00
5877;BME280;2964;42.144;24.730;2023-01-15T11:29:15;143509.16;;;7.69;100.00
5877;BME280;2964;42.144;24.730;2023-01-15T11:31:46;143489.13;;;7.61;100.00
5877;BME280;2964;42.144;24.730;2023-01-15T11:34:18;143584.34;;;8.00;100.00
5877;BME280;2964;42.144;24.730;2023-01-15T11:36:47;143531.69;;;7.78;100.00
5877;BME280;2964;42.144;24.730;2023-01-15T11:39:24;143499.13;;;7.65;100.00
5877;BME280;2964;42.144;24.730;2023-01-15T11:41:57;143520.44;;;7.73;100.00
5877;BME280;2964;42.144;24.730;2023-01-15T11:44:50;143551.78;;;7.86;100.00
5877;BME280;2964;42.144;24.730;2023-01-15T11:47:34;143395.16;;;7.22;100.00
5877;BME280;2964;42.144;24.730;2023-01-15T11:50:19;143487.88;;;7.60;100.00
5877;BME280;2964;42.144;24.730;2023-01-15T11:53:08;143499.13;;;7.65;100.00
5877;BME280;2964;42.144;24.730;2023-01-15T11:55:38;143476.56;;;7.56;100.00
5877;BME280;2964;42.144;24.730;2023-01-15T11:58:07;143467.81;;;7.52;100.00
5877;BME280;2964;42.144;24.730;2023-01-15T12:00:37;143496.66;;;7.64;100.00
5877;BME280;2964;42.144;24.730;2023-01-15T12:03:13;143445.25;;;7.43;100.00
5877;BME280;2964;42.144;24.730;2023-01-15T12:05:45;143484.13;;;7.59;100.00
5877;BME280;2964;42.144;24.730;2023-01-15T12:08:23;143471.56;;;7.53;100.00
5877;BME280;2964;42.144;24.730;2023-01-15T12:10:55;143451.53;;;7.45;100.00
5877;BME280;2964;42.144;24.730;2023-01-15T12:13:37;143514.19;;;7.71;100.00
5877;BME280;2964;42.144;24.730;2023-01-15T12:16:13;143506.66;;;7.68;100.00
5877;BME280;2964;42.144;24.730;2023-01-15T12:18:50;143510.44;;;7.69;100.00
5877;BME280;2964;42.144;24.730;2023-01-15T12:21:33;143553.03;;;7.87;100.00
5877;BME280;2964;42.144;24.730;2023-01-15T12:24:40;143568.09;;;7.93;100.00
5877;BME280;2964;42.144;24.730;2023-01-15T12:27:34;143501.66;;;7.66;100.00
5877;BME280;2964;42.144;24.730;2023-01-15T12:30:13;143487.88;;;7.60;100.00
5877;BME280;2964;42.144;24.730;2023-01-15T12:32:51;143507.91;;;7.68;100.00
5877;BME280;2964;42.144;24.730;2023-01-15T12:35:27;143549.25;;;7.85;100.00
5877;BME280;2964;42.144;24.730;2023-01-15T12:37:57;143554.25;;;7.87;100.00
5877;BME280;2964;42.144;24.730;2023-01-15T12:40:28;143522.94;;;7.74;100.00
5877;BME280;2964;42.144;24.730;2023-01-15T12:42:56;143437.75;;;7.40;100.00
5877;BME280;2964;42.144;24.730;2023-01-15T12:45:42;143457.78;;;7.48;100.00
5877;BME280;2964;42.144;24.730;2023-01-15T12:48:15;143489.13;;;7.61;100.00
5877;BME280;2964;42.144;24.730;2023-01-15T12:50:46;143492.88;;;7.62;100.00
5877;BME280;2964;42.144;24.730;2023-01-15T12:53:16;143437.75;;;7.40;100.00
5877;BME280;2964;42.144;24.730;2023-01-15T12:55:50;143507.91;;;7.68;100.00
5877;BME280;2964;42.144;24.730;2023-01-15T12:58:30;143563.03;;;7.91;100.00
5877;BME280;2964;42.144;24.730;2023-01-15T13:01:04;143606.91;;;8.09;100.00
5877;BME280;2964;42.144;24.730;2023-01-15T13:03:47;143534.22;;;7.79;100.00
5877;BME280;2964;42.144;24.730;2023-01-15T13:06:16;143654.56;;;8.28;100.00
5877;BME280;2964;42.144;24.730;2023-01-15T13:08:49;143614.47;;;8.12;100.00
5877;BME280;2964;42.144;24.730;2023-01-15T13:11:21;143652.06;;;8.27;100.00
5877;BME280;2964;42.144;24.730;2023-01-15T13:13:48;143560.56;;;7.90;100.00
5877;BME280;2964;42.144;24.730;2023-01-15T13:16:34;143549.25;;;7.85;100.00
5877;BME280;2964;42.144;24.730;2023-01-15T13:19:18;143467.81;;;7.52;100.00
5877;BME280;2964;42.144;24.730;2023-01-15T13:21:47;143584.34;;;8.00;100.00
5877;BME280;2964;42.144;24.730;2023-01-15T13:27:26;143482.88;;;7.58;100.00
5877;BME280;2964;42.144;24.730;2023-01-15T13:30:08;143476.56;;;7.56;100.00